Airfield :
LOGIN :

Register | Disclaimer

   EN    FR    IT 

 










Legend :    VFR   Marginal VFR   IFR   Intensive IFR   Very Intensive IFR
Visi :
Ceiling :
>= 8 km
>= 3000ft
5 to 8 km
1000 to 3000 ft
1500m to 5 km
500 to 1000 ft
800 to 1500m
200 to 500 ft
< 800m
< 200 ft
Symbols :   Thunderstorms  Fog  Heavy snow  Heavy precipitations  Wind > 20 kt
SIGMETs :     Misc.  Thunderstorms  Icing  Turbulence  Mountain Waves  Volcanic Ashes







- Airport Elevation : 233 ft
- IATA code : REU


LERS - Reus Tarragona

CURRENT METAR :
  • 212200Z 24002KT 9999 FEW020 23/20 Q1012

EXPIRED METARs :
  • 212130Z 23003KT 9999 FEW020 23/20 Q1012
  • 212100Z 22003KT CAVOK 23/20 Q1012
  • 212030Z 22002KT CAVOK 24/20 Q1012
  • 212000Z VRB01KT CAVOK 24/20 Q1012
  • 211930Z VRB02KT 9999 FEW027 25/20 Q1011

TAF TAF LERS
Valid from the 21 at 21:00 until the 22 at 21:00 UTC


212000Z 2121/2221 VRB03KT 9999 SCT020 TX31/2213Z TN22/2205Z
TEMPO 2200/2206 BKN008
BECMG 2208/2210 16009KT
No reported NOTAMs for that airfield.



MET'MAP, your aeronautical weather chart ! - Copyright ORBIFLY December 2007 - Disclaimer

ORBIFLY MET'MAP TEAM :

Programming & Development : Alexandra Zaïnal
Concept & Development : Baudouin d'Aumeries
Co-Development & Prog : Marc-Olivier Méhu
Technical & hardware support : Manuel Goepfert

Contact : metmap@orbifly.com




SOURCES & CREDITS :

   NOAA